sensor_id;sensor_type;location;lat;lon;timestamp;P1;durP1;ratioP1;P2;durP2;ratioP2
3095;SDS011;1558;42.700;23.360;2023-07-29T00:01:09;4.73;;;4.17;;
3095;SDS011;1558;42.700;23.360;2023-07-29T00:03:39;4.50;;;4.10;;
3095;SDS011;1558;42.700;23.360;2023-07-29T00:06:07;5.00;;;4.07;;
3095;SDS011;1558;42.700;23.360;2023-07-29T00:08:36;7.07;;;4.57;;
3095;SDS011;1558;42.700;23.360;2023-07-29T00:11:05;5.47;;;4.30;;
3095;SDS011;1558;42.700;23.360;2023-07-29T00:13:33;6.73;;;3.80;;
3095;SDS011;1558;42.700;23.360;2023-07-29T00:16:01;4.60;;;4.20;;
3095;SDS011;1558;42.700;23.360;2023-07-29T00:18:29;4.93;;;4.40;;
3095;SDS011;1558;42.700;23.360;2023-07-29T00:20:59;5.80;;;5.27;;
3095;SDS011;1558;42.700;23.360;2023-07-29T00:23:27;5.23;;;4.73;;
3095;SDS011;1558;42.700;23.360;2023-07-29T00:25:55;5.03;;;4.43;;
3095;SDS011;1558;42.700;23.360;2023-07-29T00:28:23;4.60;;;4.20;;
3095;SDS011;1558;42.700;23.360;2023-07-29T00:30:51;4.30;;;3.90;;
3095;SDS011;1558;42.700;23.360;2023-07-29T00:33:19;5.43;;;3.83;;
3095;SDS011;1558;42.700;23.360;2023-07-29T00:35:47;6.93;;;4.17;;
3095;SDS011;1558;42.700;23.360;2023-07-29T00:38:17;5.07;;;4.67;;
3095;SDS011;1558;42.700;23.360;2023-07-29T00:40:45;4.73;;;4.23;;
3095;SDS011;1558;42.700;23.360;2023-07-29T00:43:13;4.63;;;4.23;;
3095;SDS011;1558;42.700;23.360;2023-07-29T00:45:41;4.17;;;3.87;;
3095;SDS011;1558;42.700;23.360;2023-07-29T00:48:11;5.57;;;4.53;;
3095;SDS011;1558;42.700;23.360;2023-07-29T00:50:40;4.57;;;4.20;;
3095;SDS011;1558;42.700;23.360;2023-07-29T00:53:08;3.93;;;3.63;;
3095;SDS011;1558;42.700;23.360;2023-07-29T00:55:38;4.33;;;4.03;;
3095;SDS011;1558;42.700;23.360;2023-07-29T00:58:06;4.53;;;4.00;;
3095;SDS011;1558;42.700;23.360;2023-07-29T01:00:34;4.53;;;3.87;;
3095;SDS011;1558;42.700;23.360;2023-07-29T01:03:03;4.63;;;4.23;;
3095;SDS011;1558;42.700;23.360;2023-07-29T01:05:40;4.80;;;4.40;;
3095;SDS011;1558;42.700;23.360;2023-07-29T01:08:20;8.80;;;4.60;;
3095;SDS011;1558;42.700;23.360;2023-07-29T01:10:58;6.50;;;4.40;;
3095;SDS011;1558;42.700;23.360;2023-07-29T01:13:33;6.53;;;4.93;;
3095;SDS011;1558;42.700;23.360;2023-07-29T01:16:09;4.93;;;4.53;;
3095;SDS011;1558;42.700;23.360;2023-07-29T01:18:45;5.00;;;4.60;;
3095;SDS011;1558;42.700;23.360;2023-07-29T01:21:15;5.83;;;4.43;;
3095;SDS011;1558;42.700;23.360;2023-07-29T01:23:46;4.50;;;4.10;;
3095;SDS011;1558;42.700;23.360;2023-07-29T01:26:14;4.70;;;4.20;;
3095;SDS011;1558;42.700;23.360;2023-07-29T01:28:42;5.47;;;4.30;;
3095;SDS011;1558;42.700;23.360;2023-07-29T01:31:12;5.73;;;4.80;;
3095;SDS011;1558;42.700;23.360;2023-07-29T01:33:46;6.93;;;4.90;;
3095;SDS011;1558;42.700;23.360;2023-07-29T01:36:21;6.47;;;4.70;;
3095;SDS011;1558;42.700;23.360;2023-07-29T01:38:55;5.63;;;4.70;;
3095;SDS011;1558;42.700;23.360;2023-07-29T01:41:25;5.20;;;4.70;;
3095;SDS011;1558;42.700;23.360;2023-07-29T01:43:54;5.53;;;4.67;;
3095;SDS011;1558;42.700;23.360;2023-07-29T01:46:24;6.03;;;5.30;;
3095;SDS011;1558;42.700;23.360;2023-07-29T01:48:53;6.30;;;4.73;;
3095;SDS011;1558;42.700;23.360;2023-07-29T01:51:21;7.10;;;5.07;;
3095;SDS011;1558;42.700;23.360;2023-07-29T01:53:49;6.40;;;4.70;;
3095;SDS011;1558;42.700;23.360;2023-07-29T01:56:18;6.23;;;4.80;;
3095;SDS011;1558;42.700;23.360;2023-07-29T01:58:46;5.17;;;4.67;;
3095;SDS011;1558;42.700;23.360;2023-07-29T02:01:14;5.70;;;4.80;;
3095;SDS011;1558;42.700;23.360;2023-07-29T02:03:42;4.83;;;4.43;;
3095;SDS011;1558;42.700;23.360;2023-07-29T02:06:11;4.90;;;4.30;;
3095;SDS011;1558;42.700;23.360;2023-07-29T02:08:38;5.37;;;4.63;;
3095;SDS011;1558;42.700;23.360;2023-07-29T02:11:07;4.67;;;4.27;;
3095;SDS011;1558;42.700;23.360;2023-07-29T02:13:37;4.80;;;4.40;;
3095;SDS011;1558;42.700;23.360;2023-07-29T02:16:05;5.10;;;4.37;;
3095;SDS011;1558;42.700;23.360;2023-07-29T02:18:33;4.90;;;4.50;;
3095;SDS011;1558;42.700;23.360;2023-07-29T02:21:01;5.17;;;4.67;;
3095;SDS011;1558;42.700;23.360;2023-07-29T02:23:29;7.93;;;4.70;;
3095;SDS011;1558;42.700;23.360;2023-07-29T02:25:57;5.13;;;4.73;;
3095;SDS011;1558;42.700;23.360;2023-07-29T02:28:25;5.20;;;4.40;;
3095;SDS011;1558;42.700;23.360;2023-07-29T02:33:49;5.47;;;4.97;;
3095;SDS011;1558;42.700;23.360;2023-07-29T02:36:17;5.47;;;4.90;;
3095;SDS011;1558;42.700;23.360;2023-07-29T02:38:46;6.23;;;4.83;;
3095;SDS011;1558;42.700;23.360;2023-07-29T02:41:14;5.17;;;4.70;;
3095;SDS011;1558;42.700;23.360;2023-07-29T02:43:43;7.37;;;5.20;;
3095;SDS011;1558;42.700;23.360;2023-07-29T02:46:11;7.67;;;5.47;;
3095;SDS011;1558;42.700;23.360;2023-07-29T02:48:39;6.00;;;5.03;;
3095;SDS011;1558;42.700;23.360;2023-07-29T02:51:09;6.40;;;5.27;;
3095;SDS011;1558;42.700;23.360;2023-07-29T02:53:38;5.87;;;5.23;;
3095;SDS011;1558;42.700;23.360;2023-07-29T02:56:06;5.23;;;4.60;;
3095;SDS011;1558;42.700;23.360;2023-07-29T02:58:35;5.50;;;4.90;;
3095;SDS011;1558;42.700;23.360;2023-07-29T03:01:04;6.13;;;4.77;;
3095;SDS011;1558;42.700;23.360;2023-07-29T03:03:33;4.60;;;4.20;;
3095;SDS011;1558;42.700;23.360;2023-07-29T03:06:02;5.00;;;4.40;;
3095;SDS011;1558;42.700;23.360;2023-07-29T03:08:33;5.27;;;4.50;;
3095;SDS011;1558;42.700;23.360;2023-07-29T03:11:04;5.67;;;4.90;;
3095;SDS011;1558;42.700;23.360;2023-07-29T03:13:33;6.67;;;4.57;;
3095;SDS011;1558;42.700;23.360;2023-07-29T03:16:05;4.80;;;4.50;;
3095;SDS011;1558;42.700;23.360;2023-07-29T03:18:34;5.10;;;4.30;;
3095;SDS011;1558;42.700;23.360;2023-07-29T03:21:02;5.30;;;4.23;;
3095;SDS011;1558;42.700;23.360;2023-07-29T03:23:32;5.47;;;4.50;;
3095;SDS011;1558;42.700;23.360;2023-07-29T03:26:02;5.60;;;4.70;;
3095;SDS011;1558;42.700;23.360;2023-07-29T03:28:37;5.47;;;4.50;;
3095;SDS011;1558;42.700;23.360;2023-07-29T03:31:06;5.40;;;4.90;;
3095;SDS011;1558;42.700;23.360;2023-07-29T03:33:34;5.70;;;4.97;;
3095;SDS011;1558;42.700;23.360;2023-07-29T03:36:02;5.00;;;4.60;;
3095;SDS011;1558;42.700;23.360;2023-07-29T03:38:30;5.97;;;4.70;;
3095;SDS011;1558;42.700;23.360;2023-07-29T03:41:02;6.30;;;5.07;;
3095;SDS011;1558;42.700;23.360;2023-07-29T03:43:30;7.30;;;4.90;;
3095;SDS011;1558;42.700;23.360;2023-07-29T03:45:58;4.87;;;4.37;;
3095;SDS011;1558;42.700;23.360;2023-07-29T03:48:26;6.73;;;5.13;;
3095;SDS011;1558;42.700;23.360;2023-07-29T03:50:54;6.40;;;4.73;;
3095;SDS011;1558;42.700;23.360;2023-07-29T03:53:22;6.30;;;4.73;;
3095;SDS011;1558;42.700;23.360;2023-07-29T03:55:52;5.93;;;4.77;;
3095;SDS011;1558;42.700;23.360;2023-07-29T03:58:20;5.13;;;4.73;;
3095;SDS011;1558;42.700;23.360;2023-07-29T04:00:48;6.87;;;4.77;;
3095;SDS011;1558;42.700;23.360;2023-07-29T04:03:16;54.23;;;10.10;;
3095;SDS011;1558;42.700;23.360;2023-07-29T04:05:44;5.57;;;5.17;;
3095;SDS011;1558;42.700;23.360;2023-07-29T04:08:12;5.90;;;5.23;;
3095;SDS011;1558;42.700;23.360;2023-07-29T04:10:40;5.57;;;5.13;;
3095;SDS011;1558;42.700;23.360;2023-07-29T04:13:10;5.80;;;5.30;;
3095;SDS011;1558;42.700;23.360;2023-07-29T04:15:38;7.90;;;5.20;;
3095;SDS011;1558;42.700;23.360;2023-07-29T04:18:06;6.30;;;5.70;;
3095;SDS011;1558;42.700;23.360;2023-07-29T04:20:34;6.83;;;5.77;;
3095;SDS011;1558;42.700;23.360;2023-07-29T04:23:02;6.33;;;5.70;;
3095;SDS011;1558;42.700;23.360;2023-07-29T04:25:31;9.10;;;6.50;;
3095;SDS011;1558;42.700;23.360;2023-07-29T04:27:59;7.23;;;6.53;;
3095;SDS011;1558;42.700;23.360;2023-07-29T04:30:31;8.07;;;6.13;;
3095;SDS011;1558;42.700;23.360;2023-07-29T04:32:59;6.33;;;5.73;;
3095;SDS011;1558;42.700;23.360;2023-07-29T04:35:27;5.90;;;5.40;;
3095;SDS011;1558;42.700;23.360;2023-07-29T04:37:55;7.03;;;6.03;;
3095;SDS011;1558;42.700;23.360;2023-07-29T04:40:23;8.83;;;6.03;;
3095;SDS011;1558;42.700;23.360;2023-07-29T04:42:51;6.83;;;6.20;;
3095;SDS011;1558;42.700;23.360;2023-07-29T04:45:20;6.50;;;5.90;;
3095;SDS011;1558;42.700;23.360;2023-07-29T04:47:49;6.57;;;5.70;;
3095;SDS011;1558;42.700;23.360;2023-07-29T04:50:18;6.77;;;6.17;;
3095;SDS011;1558;42.700;23.360;2023-07-29T04:52:46;7.27;;;6.03;;
3095;SDS011;1558;42.700;23.360;2023-07-29T04:55:14;6.17;;;5.60;;
3095;SDS011;1558;42.700;23.360;2023-07-29T04:57:42;6.13;;;5.57;;
3095;SDS011;1558;42.700;23.360;2023-07-29T05:00:11;5.97;;;5.23;;
3095;SDS011;1558;42.700;23.360;2023-07-29T05:02:39;7.27;;;5.60;;
3095;SDS011;1558;42.700;23.360;2023-07-29T05:05:09;6.53;;;5.67;;
3095;SDS011;1558;42.700;23.360;2023-07-29T05:07:37;5.80;;;5.30;;
3095;SDS011;1558;42.700;23.360;2023-07-29T05:10:06;6.57;;;5.75;;
3095;SDS011;1558;42.700;23.360;2023-07-29T05:12:35;5.88;;;5.38;;
3095;SDS011;1558;42.700;23.360;2023-07-29T05:15:04;6.55;;;5.95;;
3095;SDS011;1558;42.700;23.360;2023-07-29T05:17:33;6.43;;;5.90;;
3095;SDS011;1558;42.700;23.360;2023-07-29T05:20:01;6.40;;;5.60;;
3095;SDS011;1558;42.700;23.360;2023-07-29T05:22:30;6.30;;;5.38;;
3095;SDS011;1558;42.700;23.360;2023-07-29T05:24:58;5.82;;;5.30;;
3095;SDS011;1558;42.700;23.360;2023-07-29T05:27:27;5.55;;;5.05;;
3095;SDS011;1558;42.700;23.360;2023-07-29T05:29:55;5.90;;;5.40;;
3095;SDS011;1558;42.700;23.360;2023-07-29T05:32:23;4.93;;;4.53;;
3095;SDS011;1558;42.700;23.360;2023-07-29T05:34:51;5.78;;;5.25;;
3095;SDS011;1558;42.700;23.360;2023-07-29T05:37:19;8.45;;;5.93;;
3095;SDS011;1558;42.700;23.360;2023-07-29T05:39:48;6.30;;;5.43;;
3095;SDS011;1558;42.700;23.360;2023-07-29T05:42:16;5.70;;;5.18;;
3095;SDS011;1558;42.700;23.360;2023-07-29T05:44:45;5.70;;;5.20;;
3095;SDS011;1558;42.700;23.360;2023-07-29T05:47:13;9.38;;;6.80;;
3095;SDS011;1558;42.700;23.360;2023-07-29T05:49:41;6.05;;;5.55;;
3095;SDS011;1558;42.700;23.360;2023-07-29T05:52:09;6.25;;;5.70;;
3095;SDS011;1558;42.700;23.360;2023-07-29T05:54:37;7.10;;;6.32;;
3095;SDS011;1558;42.700;23.360;2023-07-29T05:57:07;8.52;;;7.07;;
3095;SDS011;1558;42.700;23.360;2023-07-29T05:59:35;7.07;;;6.38;;
3095;SDS011;1558;42.700;23.360;2023-07-29T06:02:03;6.43;;;5.50;;
3095;SDS011;1558;42.700;23.360;2023-07-29T06:04:32;8.18;;;6.05;;
3095;SDS011;1558;42.700;23.360;2023-07-29T06:07:00;9.07;;;5.88;;
3095;SDS011;1558;42.700;23.360;2023-07-29T06:09:29;6.10;;;5.60;;
3095;SDS011;1558;42.700;23.360;2023-07-29T06:11:57;8.32;;;6.20;;
3095;SDS011;1558;42.700;23.360;2023-07-29T06:14:26;7.15;;;6.55;;
3095;SDS011;1558;42.700;23.360;2023-07-29T06:16:54;9.00;;;7.50;;
3095;SDS011;1558;42.700;23.360;2023-07-29T06:19:22;7.32;;;6.47;;
3095;SDS011;1558;42.700;23.360;2023-07-29T06:21:50;10.13;;;7.50;;
3095;SDS011;1558;42.700;23.360;2023-07-29T06:24:18;7.35;;;6.35;;
3095;SDS011;1558;42.700;23.360;2023-07-29T06:26:46;8.15;;;7.35;;
3095;SDS011;1558;42.700;23.360;2023-07-29T06:29:14;7.63;;;6.72;;
3095;SDS011;1558;42.700;23.360;2023-07-29T06:31:44;7.05;;;6.38;;
3095;SDS011;1558;42.700;23.360;2023-07-29T06:34:12;6.57;;;5.97;;
3095;SDS011;1558;42.700;23.360;2023-07-29T06:36:40;8.27;;;5.88;;
3095;SDS011;1558;42.700;23.360;2023-07-29T06:39:08;7.13;;;6.53;;
3095;SDS011;1558;42.700;23.360;2023-07-29T06:41:36;7.00;;;6.38;;
3095;SDS011;1558;42.700;23.360;2023-07-29T06:44:04;7.50;;;6.75;;
3095;SDS011;1558;42.700;23.360;2023-07-29T06:46:32;21.17;;;7.30;;
3095;SDS011;1558;42.700;23.360;2023-07-29T06:49:02;13.55;;;9.48;;
3095;SDS011;1558;42.700;23.360;2023-07-29T06:51:30;7.05;;;6.35;;
3095;SDS011;1558;42.700;23.360;2023-07-29T06:54:01;9.43;;;6.95;;
3095;SDS011;1558;42.700;23.360;2023-07-29T06:56:29;6.22;;;5.70;;
3095;SDS011;1558;42.700;23.360;2023-07-29T06:58:57;7.28;;;6.65;;
3095;SDS011;1558;42.700;23.360;2023-07-29T07:01:25;7.55;;;6.82;;
3095;SDS011;1558;42.700;23.360;2023-07-29T07:03:54;6.70;;;6.03;;
3095;SDS011;1558;42.700;23.360;2023-07-29T07:06:26;6.95;;;6.20;;
3095;SDS011;1558;42.700;23.360;2023-07-29T07:08:54;8.38;;;6.53;;
3095;SDS011;1558;42.700;23.360;2023-07-29T07:11:22;8.10;;;7.50;;
3095;SDS011;1558;42.700;23.360;2023-07-29T07:13:50;7.45;;;6.45;;
3095;SDS011;1558;42.700;23.360;2023-07-29T07:16:18;6.97;;;6.30;;
3095;SDS011;1558;42.700;23.360;2023-07-29T07:18:46;8.27;;;6.75;;
3095;SDS011;1558;42.700;23.360;2023-07-29T07:21:15;16.10;;;6.70;;
3095;SDS011;1558;42.700;23.360;2023-07-29T07:23:44;7.30;;;6.43;;
3095;SDS011;1558;42.700;23.360;2023-07-29T07:26:12;7.60;;;6.57;;
3095;SDS011;1558;42.700;23.360;2023-07-29T07:28:40;8.65;;;7.07;;
3095;SDS011;1558;42.700;23.360;2023-07-29T07:31:08;6.95;;;6.22;;
3095;SDS011;1558;42.700;23.360;2023-07-29T07:33:36;7.47;;;6.07;;
3095;SDS011;1558;42.700;23.360;2023-07-29T07:36:05;6.95;;;6.35;;
3095;SDS011;1558;42.700;23.360;2023-07-29T07:38:33;8.68;;;5.93;;
3095;SDS011;1558;42.700;23.360;2023-07-29T07:41:02;7.93;;;6.22;;
3095;SDS011;1558;42.700;23.360;2023-07-29T07:43:33;6.68;;;6.00;;
3095;SDS011;1558;42.700;23.360;2023-07-29T07:46:01;8.60;;;7.15;;
3095;SDS011;1558;42.700;23.360;2023-07-29T07:48:29;7.00;;;6.30;;
3095;SDS011;1558;42.700;23.360;2023-07-29T07:50:59;7.07;;;6.43;;
3095;SDS011;1558;42.700;23.360;2023-07-29T07:53:27;9.65;;;7.20;;
3095;SDS011;1558;42.700;23.360;2023-07-29T07:55:55;9.85;;;8.23;;
3095;SDS011;1558;42.700;23.360;2023-07-29T07:58:24;6.75;;;6.25;;
3095;SDS011;1558;42.700;23.360;2023-07-29T08:00:52;6.82;;;6.32;;
3095;SDS011;1558;42.700;23.360;2023-07-29T08:03:28;15.07;;;13.77;;
3095;SDS011;1558;42.700;23.360;2023-07-29T08:05:56;6.32;;;5.78;;
3095;SDS011;1558;42.700;23.360;2023-07-29T08:08:25;7.13;;;5.20;;
3095;SDS011;1558;42.700;23.360;2023-07-29T08:10:54;6.07;;;5.57;;
3095;SDS011;1558;42.700;23.360;2023-07-29T08:13:25;6.82;;;6.03;;
3095;SDS011;1558;42.700;23.360;2023-07-29T08:15:53;6.32;;;5.72;;
3095;SDS011;1558;42.700;23.360;2023-07-29T08:18:21;6.15;;;5.40;;
3095;SDS011;1558;42.700;23.360;2023-07-29T08:20:52;6.05;;;5.10;;
3095;SDS011;1558;42.700;23.360;2023-07-29T08:23:21;7.93;;;5.40;;
3095;SDS011;1558;42.700;23.360;2023-07-29T08:25:51;8.57;;;5.30;;
3095;SDS011;1558;42.700;23.360;2023-07-29T08:28:20;21.42;;;14.65;;
3095;SDS011;1558;42.700;23.360;2023-07-29T08:30:50;6.15;;;5.60;;
3095;SDS011;1558;42.700;23.360;2023-07-29T08:33:18;5.78;;;5.20;;
3095;SDS011;1558;42.700;23.360;2023-07-29T08:35:46;5.43;;;5.13;;
3095;SDS011;1558;42.700;23.360;2023-07-29T08:38:14;4.97;;;4.57;;
3095;SDS011;1558;42.700;23.360;2023-07-29T08:40:43;7.97;;;5.18;;
3095;SDS011;1558;42.700;23.360;2023-07-29T08:43:20;5.60;;;5.10;;
3095;SDS011;1558;42.700;23.360;2023-07-29T08:45:57;6.22;;;5.43;;
3095;SDS011;1558;42.700;23.360;2023-07-29T08:48:29;5.40;;;5.00;;
3095;SDS011;1558;42.700;23.360;2023-07-29T08:51:02;5.38;;;5.00;;
3095;SDS011;1558;42.700;23.360;2023-07-29T08:53:31;5.43;;;5.03;;
3095;SDS011;1558;42.700;23.360;2023-07-29T08:56:00;6.43;;;5.07;;
3095;SDS011;1558;42.700;23.360;2023-07-29T08:58:29;6.93;;;4.60;;
3095;SDS011;1558;42.700;23.360;2023-07-29T09:00:59;6.25;;;5.65;;
3095;SDS011;1558;42.700;23.360;2023-07-29T09:03:27;4.68;;;4.32;;
3095;SDS011;1558;42.700;23.360;2023-07-29T09:05:55;4.60;;;4.20;;
3095;SDS011;1558;42.700;23.360;2023-07-29T09:08:25;4.60;;;4.20;;
3095;SDS011;1558;42.700;23.360;2023-07-29T09:10:54;6.90;;;4.32;;
3095;SDS011;1558;42.700;23.360;2023-07-29T09:13:22;4.35;;;4.00;;
3095;SDS011;1558;42.700;23.360;2023-07-29T09:15:53;4.35;;;4.05;;
3095;SDS011;1558;42.700;23.360;2023-07-29T09:18:23;5.00;;;4.50;;
3095;SDS011;1558;42.700;23.360;2023-07-29T09:20:54;5.85;;;4.43;;
3095;SDS011;1558;42.700;23.360;2023-07-29T09:23:26;4.00;;;3.80;;
3095;SDS011;1558;42.700;23.360;2023-07-29T09:26:00;6.80;;;4.13;;
3095;SDS011;1558;42.700;23.360;2023-07-29T09:28:32;4.72;;;4.20;;
3095;SDS011;1558;42.700;23.360;2023-07-29T09:31:02;4.70;;;4.30;;
3095;SDS011;1558;42.700;23.360;2023-07-29T09:33:34;4.70;;;3.80;;
3095;SDS011;1558;42.700;23.360;2023-07-29T09:36:07;3.72;;;3.42;;
3095;SDS011;1558;42.700;23.360;2023-07-29T09:38:37;3.47;;;3.28;;
3095;SDS011;1558;42.700;23.360;2023-07-29T09:41:05;5.03;;;3.35;;
3095;SDS011;1558;42.700;23.360;2023-07-29T09:43:34;4.13;;;3.83;;
3095;SDS011;1558;42.700;23.360;2023-07-29T09:46:03;4.03;;;3.72;;
3095;SDS011;1558;42.700;23.360;2023-07-29T09:48:35;6.30;;;3.97;;
3095;SDS011;1558;42.700;23.360;2023-07-29T09:51:09;3.90;;;3.60;;
3095;SDS011;1558;42.700;23.360;2023-07-29T09:53:42;4.82;;;4.30;;
3095;SDS011;1558;42.700;23.360;2023-07-29T09:56:13;6.07;;;3.65;;
3095;SDS011;1558;42.700;23.360;2023-07-29T09:58:42;3.08;;;2.88;;
3095;SDS011;1558;42.700;23.360;2023-07-29T10:01:12;2.80;;;2.60;;
3095;SDS011;1558;42.700;23.360;2023-07-29T10:03:43;3.47;;;2.65;;
3095;SDS011;1558;42.700;23.360;2023-07-29T10:06:12;2.67;;;2.47;;
3095;SDS011;1558;42.700;23.360;2023-07-29T10:08:42;3.60;;;3.05;;
3095;SDS011;1558;42.700;23.360;2023-07-29T10:11:11;4.57;;;3.22;;
3095;SDS011;1558;42.700;23.360;2023-07-29T10:13:39;3.85;;;3.10;;
3095;SDS011;1558;42.700;23.360;2023-07-29T10:16:09;4.40;;;3.75;;
3095;SDS011;1558;42.700;23.360;2023-07-29T10:18:38;5.07;;;3.55;;
3095;SDS011;1558;42.700;23.360;2023-07-29T10:21:09;3.40;;;3.20;;
3095;SDS011;1558;42.700;23.360;2023-07-29T10:23:42;4.70;;;4.28;;
3095;SDS011;1558;42.700;23.360;2023-07-29T10:26:14;3.60;;;3.40;;
3095;SDS011;1558;42.700;23.360;2023-07-29T10:28:47;2.92;;;2.72;;
3095;SDS011;1558;42.700;23.360;2023-07-29T10:31:15;2.97;;;2.78;;
3095;SDS011;1558;42.700;23.360;2023-07-29T10:33:44;3.10;;;2.90;;
3095;SDS011;1558;42.700;23.360;2023-07-29T10:36:14;3.15;;;2.95;;
3095;SDS011;1558;42.700;23.360;2023-07-29T10:38:44;6.13;;;4.82;;
3095;SDS011;1558;42.700;23.360;2023-07-29T10:41:12;3.10;;;2.90;;
3095;SDS011;1558;42.700;23.360;2023-07-29T10:43:40;2.80;;;2.60;;
3095;SDS011;1558;42.700;23.360;2023-07-29T10:46:15;5.57;;;3.40;;
3095;SDS011;1558;42.700;23.360;2023-07-29T10:48:51;3.05;;;2.85;;
3095;SDS011;1558;42.700;23.360;2023-07-29T10:51:29;2.22;;;2.10;;
3095;SDS011;1558;42.700;23.360;2023-07-29T10:54:00;2.60;;;2.50;;
3095;SDS011;1558;42.700;23.360;2023-07-29T10:56:29;3.85;;;3.55;;
3095;SDS011;1558;42.700;23.360;2023-07-29T10:58:59;3.70;;;2.65;;
3095;SDS011;1558;42.700;23.360;2023-07-29T11:01:50;3.00;;;2.80;;
3095;SDS011;1558;42.700;23.360;2023-07-29T11:04:24;2.42;;;2.33;;
3095;SDS011;1558;42.700;23.360;2023-07-29T11:09:59;3.20;;;3.00;;
3095;SDS011;1558;42.700;23.360;2023-07-29T11:12:34;2.53;;;2.42;;
3095;SDS011;1558;42.700;23.360;2023-07-29T11:15:14;2.65;;;2.45;;
3095;SDS011;1558;42.700;23.360;2023-07-29T11:17:44;2.85;;;2.65;;
3095;SDS011;1558;42.700;23.360;2023-07-29T11:20:14;2.80;;;2.60;;
3095;SDS011;1558;42.700;23.360;2023-07-29T11:22:44;2.80;;;2.60;;
3095;SDS011;1558;42.700;23.360;2023-07-29T11:25:14;5.00;;;4.60;;
3095;SDS011;1558;42.700;23.360;2023-07-29T11:27:43;5.65;;;5.03;;
3095;SDS011;1558;42.700;23.360;2023-07-29T11:30:11;6.55;;;6.05;;
3095;SDS011;1558;42.700;23.360;2023-07-29T11:32:41;3.13;;;2.92;;
3095;SDS011;1558;42.700;23.360;2023-07-29T11:35:10;3.78;;;2.65;;
3095;SDS011;1558;42.700;23.360;2023-07-29T11:37:42;3.03;;;2.75;;
3095;SDS011;1558;42.700;23.360;2023-07-29T11:40:14;2.47;;;2.38;;
3095;SDS011;1558;42.700;23.360;2023-07-29T11:42:43;3.65;;;2.85;;
3095;SDS011;1558;42.700;23.360;2023-07-29T11:45:12;2.67;;;2.47;;
3095;SDS011;1558;42.700;23.360;2023-07-29T11:47:43;5.05;;;4.65;;
3095;SDS011;1558;42.700;23.360;2023-07-29T11:50:12;4.97;;;4.68;;
3095;SDS011;1558;42.700;23.360;2023-07-29T11:52:42;3.28;;;2.90;;
3095;SDS011;1558;42.700;23.360;2023-07-29T11:55:11;3.65;;;3.45;;
3095;SDS011;1558;42.700;23.360;2023-07-29T11:57:42;4.35;;;3.78;;
3095;SDS011;1558;42.700;23.360;2023-07-29T12:00:11;7.00;;;4.97;;
3095;SDS011;1558;42.700;23.360;2023-07-29T12:02:41;4.43;;;4.03;;
3095;SDS011;1558;42.700;23.360;2023-07-29T12:05:14;5.65;;;5.22;;
3095;SDS011;1558;42.700;23.360;2023-07-29T12:07:43;4.38;;;3.97;;
3095;SDS011;1558;42.700;23.360;2023-07-29T12:10:12;3.47;;;3.28;;
3095;SDS011;1558;42.700;23.360;2023-07-29T12:12:45;4.68;;;4.35;;
3095;SDS011;1558;42.700;23.360;2023-07-29T12:15:22;5.30;;;4.38;;
3095;SDS011;1558;42.700;23.360;2023-07-29T12:17:52;3.33;;;3.08;;
3095;SDS011;1558;42.700;23.360;2023-07-29T12:20:23;3.08;;;2.88;;
3095;SDS011;1558;42.700;23.360;2023-07-29T12:22:52;3.25;;;3.05;;
3095;SDS011;1558;42.700;23.360;2023-07-29T12:25:21;5.47;;;4.97;;
3095;SDS011;1558;42.700;23.360;2023-07-29T12:27:51;4.05;;;3.75;;
3095;SDS011;1558;42.700;23.360;2023-07-29T12:30:23;10.32;;;7.97;;
3095;SDS011;1558;42.700;23.360;2023-07-29T12:32:52;3.40;;;3.20;;
3095;SDS011;1558;42.700;23.360;2023-07-29T12:35:20;2.92;;;2.65;;
3095;SDS011;1558;42.700;23.360;2023-07-29T12:37:57;3.47;;;3.17;;
3095;SDS011;1558;42.700;23.360;2023-07-29T12:40:26;2.92;;;2.50;;
3095;SDS011;1558;42.700;23.360;2023-07-29T12:42:56;2.63;;;2.42;;
3095;SDS011;1558;42.700;23.360;2023-07-29T12:45:24;3.53;;;2.90;;
3095;SDS011;1558;42.700;23.360;2023-07-29T12:47:55;2.80;;;2.60;;
3095;SDS011;1558;42.700;23.360;2023-07-29T12:50:24;3.13;;;2.60;;
3095;SDS011;1558;42.700;23.360;2023-07-29T12:52:52;2.70;;;2.50;;
3095;SDS011;1558;42.700;23.360;2023-07-29T12:55:20;2.80;;;2.60;;
3095;SDS011;1558;42.700;23.360;2023-07-29T12:57:52;3.30;;;3.00;;
3095;SDS011;1558;42.700;23.360;2023-07-29T13:00:21;4.47;;;3.40;;
3095;SDS011;1558;42.700;23.360;2023-07-29T13:02:49;3.65;;;2.67;;
3095;SDS011;1558;42.700;23.360;2023-07-29T13:05:17;8.95;;;3.55;;
3095;SDS011;1558;42.700;23.360;2023-07-29T13:07:46;3.67;;;3.38;;
3095;SDS011;1558;42.700;23.360;2023-07-29T13:10:14;3.05;;;2.85;;
3095;SDS011;1558;42.700;23.360;2023-07-29T13:12:42;3.20;;;3.00;;
3095;SDS011;1558;42.700;23.360;2023-07-29T13:15:10;3.10;;;2.90;;
3095;SDS011;1558;42.700;23.360;2023-07-29T13:17:42;2.95;;;2.75;;
3095;SDS011;1558;42.700;23.360;2023-07-29T13:20:10;4.50;;;4.10;;
3095;SDS011;1558;42.700;23.360;2023-07-29T13:22:38;4.25;;;3.95;;
3095;SDS011;1558;42.700;23.360;2023-07-29T13:25:07;5.35;;;4.78;;
3095;SDS011;1558;42.700;23.360;2023-07-29T13:27:37;5.70;;;5.18;;
3095;SDS011;1558;42.700;23.360;2023-07-29T13:30:06;3.50;;;3.30;;
3095;SDS011;1558;42.700;23.360;2023-07-29T13:32:35;4.40;;;3.30;;
3095;SDS011;1558;42.700;23.360;2023-07-29T13:35:08;3.25;;;3.05;;
3095;SDS011;1558;42.700;23.360;2023-07-29T13:37:36;3.45;;;3.08;;
3095;SDS011;1558;42.700;23.360;2023-07-29T13:40:06;3.20;;;3.00;;
3095;SDS011;1558;42.700;23.360;2023-07-29T13:42:36;3.45;;;3.17;;
3095;SDS011;1558;42.700;23.360;2023-07-29T13:45:04;2.70;;;2.50;;
3095;SDS011;1558;42.700;23.360;2023-07-29T13:47:35;2.90;;;2.70;;
3095;SDS011;1558;42.700;23.360;2023-07-29T13:50:06;4.57;;;4.28;;
3095;SDS011;1558;42.700;23.360;2023-07-29T13:52:35;3.08;;;2.80;;
3095;SDS011;1558;42.700;23.360;2023-07-29T13:55:04;2.75;;;2.50;;
3095;SDS011;1558;42.700;23.360;2023-07-29T13:57:33;5.22;;;2.97;;
3095;SDS011;1558;42.700;23.360;2023-07-29T14:00:01;3.63;;;3.38;;
3095;SDS011;1558;42.700;23.360;2023-07-29T14:02:32;2.92;;;2.63;;
3095;SDS011;1558;42.700;23.360;2023-07-29T14:05:00;3.03;;;2.83;;
3095;SDS011;1558;42.700;23.360;2023-07-29T14:07:29;3.45;;;3.13;;
3095;SDS011;1558;42.700;23.360;2023-07-29T14:09:57;2.42;;;2.22;;
3095;SDS011;1558;42.700;23.360;2023-07-29T14:12:28;4.90;;;3.53;;
3095;SDS011;1558;42.700;23.360;2023-07-29T14:14:58;3.17;;;2.35;;
3095;SDS011;1558;42.700;23.360;2023-07-29T14:17:26;3.13;;;2.92;;
3095;SDS011;1558;42.700;23.360;2023-07-29T14:19:54;3.47;;;3.17;;
3095;SDS011;1558;42.700;23.360;2023-07-29T14:22:22;4.68;;;3.53;;
3095;SDS011;1558;42.700;23.360;2023-07-29T14:24:52;4.85;;;3.95;;
3095;SDS011;1558;42.700;23.360;2023-07-29T14:27:22;4.13;;;3.58;;
3095;SDS011;1558;42.700;23.360;2023-07-29T14:29:50;3.53;;;3.22;;
3095;SDS011;1558;42.700;23.360;2023-07-29T14:32:20;4.05;;;3.15;;
3095;SDS011;1558;42.700;23.360;2023-07-29T14:34:49;3.50;;;3.20;;
3095;SDS011;1558;42.700;23.360;2023-07-29T14:37:17;3.85;;;3.47;;
3095;SDS011;1558;42.700;23.360;2023-07-29T14:39:48;3.20;;;2.90;;
3095;SDS011;1558;42.700;23.360;2023-07-29T14:42:17;3.13;;;2.63;;
3095;SDS011;1558;42.700;23.360;2023-07-29T14:44:45;3.15;;;2.75;;
3095;SDS011;1558;42.700;23.360;2023-07-29T14:47:14;4.80;;;2.97;;
3095;SDS011;1558;42.700;23.360;2023-07-29T14:49:42;4.03;;;3.05;;
3095;SDS011;1558;42.700;23.360;2023-07-29T14:52:14;4.18;;;2.80;;
3095;SDS011;1558;42.700;23.360;2023-07-29T14:54:42;3.95;;;2.60;;
3095;SDS011;1558;42.700;23.360;2023-07-29T14:57:10;2.92;;;2.63;;
3095;SDS011;1558;42.700;23.360;2023-07-29T14:59:40;3.75;;;2.53;;
3095;SDS011;1558;42.700;23.360;2023-07-29T15:02:08;4.38;;;2.47;;
3095;SDS011;1558;42.700;23.360;2023-07-29T15:04:36;3.22;;;2.60;;
3095;SDS011;1558;42.700;23.360;2023-07-29T15:07:05;2.42;;;2.22;;
3095;SDS011;1558;42.700;23.360;2023-07-29T15:09:33;3.15;;;2.35;;
3095;SDS011;1558;42.700;23.360;2023-07-29T15:12:03;3.30;;;2.50;;
3095;SDS011;1558;42.700;23.360;2023-07-29T15:14:31;4.97;;;3.08;;
3095;SDS011;1558;42.700;23.360;2023-07-29T15:17:00;5.25;;;4.43;;
3095;SDS011;1558;42.700;23.360;2023-07-29T15:19:29;3.38;;;3.10;;